sensor_id;sensor_type;location;lat;lon;timestamp;pressure;altitude;pressure_sealevel;temperature;humidity
71917;BME280;59793;46.506;6.674;2023-04-01T00:00:51;96624.34;;;9.39;65.78
71917;BME280;59793;46.506;6.674;2023-04-01T00:03:17;96633.22;;;9.50;65.74
71917;BME280;59793;46.506;6.674;2023-04-01T00:05:43;96643.75;;;9.50;65.51
71917;BME280;59793;46.506;6.674;2023-04-01T00:08:08;96614.09;;;9.34;65.61
71917;BME280;59793;46.506;6.674;2023-04-01T00:10:33;96632.38;;;9.62;63.39
71917;BME280;59793;46.506;6.674;2023-04-01T00:12:59;96619.63;;;9.64;63.60
71917;BME280;59793;46.506;6.674;2023-04-01T00:15:25;96632.31;;;9.78;65.43
71917;BME280;59793;46.506;6.674;2023-04-01T00:17:51;96625.38;;;9.70;66.08
71917;BME280;59793;46.506;6.674;2023-04-01T00:20:16;96599.75;;;9.47;67.03
71917;BME280;59793;46.506;6.674;2023-04-01T00:22:42;96608.63;;;9.58;66.11
71917;BME280;59793;46.506;6.674;2023-04-01T00:25:08;96634.38;;;9.69;66.96
71917;BME280;59793;46.506;6.674;2023-04-01T00:27:33;96622.38;;;9.52;64.98
71917;BME280;59793;46.506;6.674;2023-04-01T00:29:58;96647.19;;;9.70;64.86
71917;BME280;59793;46.506;6.674;2023-04-01T00:32:24;96635.06;;;9.66;65.51
71917;BME280;59793;46.506;6.674;2023-04-01T00:34:51;96631.59;;;9.62;64.76
71917;BME280;59793;46.506;6.674;2023-04-01T00:37:17;96632.91;;;9.52;64.72
71917;BME280;59793;46.506;6.674;2023-04-01T00:39:42;96656.56;;;9.52;65.27
71917;BME280;59793;46.506;6.674;2023-04-01T00:42:09;96675.13;;;9.43;65.51
71917;BME280;59793;46.506;6.674;2023-04-01T00:44:37;96691.47;;;9.33;68.31
71917;BME280;59793;46.506;6.674;2023-04-01T00:47:03;96663.06;;;9.07;69.30
71917;BME280;59793;46.506;6.674;2023-04-01T00:49:40;96692.53;;;9.00;69.34
71917;BME280;59793;46.506;6.674;2023-04-01T00:52:08;96669.84;;;8.92;69.28
71917;BME280;59793;46.506;6.674;2023-04-01T00:54:37;96635.44;;;8.81;69.01
71917;BME280;59793;46.506;6.674;2023-04-01T00:57:08;96638.81;;;8.82;70.42
71917;BME280;59793;46.506;6.674;2023-04-01T00:59:42;96644.16;;;9.01;71.31
71917;BME280;59793;46.506;6.674;2023-04-01T01:02:10;96646.00;;;9.17;70.05
71917;BME280;59793;46.506;6.674;2023-04-01T01:04:37;96647.44;;;9.14;70.00
71917;BME280;59793;46.506;6.674;2023-04-01T01:09:45;96641.34;;;9.10;69.82
71917;BME280;59793;46.506;6.674;2023-04-01T01:12:20;96609.94;;;8.98;70.01
71917;BME280;59793;46.506;6.674;2023-04-01T01:20:24;96644.75;;;9.26;70.04
71917;BME280;59793;46.506;6.674;2023-04-01T01:23:15;96639.47;;;9.26;70.67
71917;BME280;59793;46.506;6.674;2023-04-01T01:31:12;96645.94;;;9.13;70.25
71917;BME280;59793;46.506;6.674;2023-04-01T01:33:54;96639.56;;;9.14;69.42
71917;BME280;59793;46.506;6.674;2023-04-01T01:36:24;96652.63;;;9.10;69.84
71917;BME280;59793;46.506;6.674;2023-04-01T01:38:53;96644.31;;;8.93;70.27
71917;BME280;59793;46.506;6.674;2023-04-01T01:41:21;96667.13;;;9.04;70.67
71917;BME280;59793;46.506;6.674;2023-04-01T01:43:50;96673.84;;;9.02;70.70
71917;BME280;59793;46.506;6.674;2023-04-01T01:46:22;96678.56;;;8.96;70.82
71917;BME280;59793;46.506;6.674;2023-04-01T01:48:49;96641.78;;;8.80;71.21
71917;BME280;59793;46.506;6.674;2023-04-01T01:51:18;96664.16;;;8.90;71.19
71917;BME280;59793;46.506;6.674;2023-04-01T01:53:43;96632.44;;;8.83;70.01
71917;BME280;59793;46.506;6.674;2023-04-01T01:56:11;96629.50;;;8.84;69.71
71917;BME280;59793;46.506;6.674;2023-04-01T01:58:51;96634.34;;;8.98;70.48
71917;BME280;59793;46.506;6.674;2023-04-01T02:01:21;96599.34;;;8.78;69.67
71917;BME280;59793;46.506;6.674;2023-04-01T02:03:49;96625.34;;;8.99;68.87
71917;BME280;59793;46.506;6.674;2023-04-01T02:06:17;96626.19;;;9.03;69.77
71917;BME280;59793;46.506;6.674;2023-04-01T02:08:56;96619.56;;;9.09;70.81
71917;BME280;59793;46.506;6.674;2023-04-01T02:11:28;96622.03;;;9.02;70.85
71917;BME280;59793;46.506;6.674;2023-04-01T02:14:00;96599.50;;;9.01;70.82
71917;BME280;59793;46.506;6.674;2023-04-01T02:16:43;96616.34;;;9.00;70.32
71917;BME280;59793;46.506;6.674;2023-04-01T02:19:13;96594.50;;;8.96;71.25
71917;BME280;59793;46.506;6.674;2023-04-01T02:21:40;96598.78;;;9.04;69.66
71917;BME280;59793;46.506;6.674;2023-04-01T02:24:10;96601.59;;;9.12;67.44
71917;BME280;59793;46.506;6.674;2023-04-01T02:26:36;96603.63;;;9.18;67.51
71917;BME280;59793;46.506;6.674;2023-04-01T02:29:04;96602.19;;;9.21;68.51
71917;BME280;59793;46.506;6.674;2023-04-01T02:31:31;96566.72;;;8.95;68.01
71917;BME280;59793;46.506;6.674;2023-04-01T02:33:57;96604.97;;;9.28;67.42
71917;BME280;59793;46.506;6.674;2023-04-01T02:36:23;96596.03;;;9.32;66.63
71917;BME280;59793;46.506;6.674;2023-04-01T02:38:49;96567.47;;;9.31;64.87
71917;BME280;59793;46.506;6.674;2023-04-01T02:41:16;96570.47;;;9.29;64.71
71917;BME280;59793;46.506;6.674;2023-04-01T02:43:42;96569.00;;;9.32;63.94
71917;BME280;59793;46.506;6.674;2023-04-01T02:46:07;96542.75;;;9.16;65.20
71917;BME280;59793;46.506;6.674;2023-04-01T02:48:32;96562.22;;;9.31;67.14
71917;BME280;59793;46.506;6.674;2023-04-01T02:50:58;96538.78;;;9.22;67.72
71917;BME280;59793;46.506;6.674;2023-04-01T02:53:23;96561.59;;;9.38;67.31
71917;BME280;59793;46.506;6.674;2023-04-01T02:55:49;96578.06;;;9.34;66.26
71917;BME280;59793;46.506;6.674;2023-04-01T02:58:18;96563.72;;;9.32;66.75
71917;BME280;59793;46.506;6.674;2023-04-01T03:00:43;96574.78;;;9.22;65.72
71917;BME280;59793;46.506;6.674;2023-04-01T03:03:09;96567.59;;;9.19;65.77
71917;BME280;59793;46.506;6.674;2023-04-01T03:05:35;96557.63;;;9.08;65.42
71917;BME280;59793;46.506;6.674;2023-04-01T03:08:00;96565.66;;;9.16;65.99
71917;BME280;59793;46.506;6.674;2023-04-01T03:10:26;96531.34;;;8.93;64.99
71917;BME280;59793;46.506;6.674;2023-04-01T03:12:51;96539.91;;;9.05;65.95
71917;BME280;59793;46.506;6.674;2023-04-01T03:15:17;96568.69;;;9.18;65.76
71917;BME280;59793;46.506;6.674;2023-04-01T03:17:42;96576.56;;;9.33;67.01
71917;BME280;59793;46.506;6.674;2023-04-01T03:20:09;96569.66;;;9.09;67.67
71917;BME280;59793;46.506;6.674;2023-04-01T03:22:36;96591.25;;;9.19;68.31
71917;BME280;59793;46.506;6.674;2023-04-01T03:25:03;96589.56;;;9.10;68.85
71917;BME280;59793;46.506;6.674;2023-04-01T03:27:28;96582.50;;;9.15;67.96
71917;BME280;59793;46.506;6.674;2023-04-01T03:29:54;96586.69;;;9.16;68.24
71917;BME280;59793;46.506;6.674;2023-04-01T03:32:19;96563.81;;;9.00;68.83
71917;BME280;59793;46.506;6.674;2023-04-01T03:34:45;96571.44;;;9.05;70.33
71917;BME280;59793;46.506;6.674;2023-04-01T03:37:10;96578.28;;;9.10;69.88
71917;BME280;59793;46.506;6.674;2023-04-01T03:39:35;96578.88;;;9.03;70.01
71917;BME280;59793;46.506;6.674;2023-04-01T03:42:01;96579.75;;;8.92;70.42
71917;BME280;59793;46.506;6.674;2023-04-01T03:44:30;96582.38;;;8.92;71.45
71917;BME280;59793;46.506;6.674;2023-04-01T03:46:56;96556.31;;;8.67;71.92
71917;BME280;59793;46.506;6.674;2023-04-01T03:49:22;96607.81;;;8.88;72.25
71917;BME280;59793;46.506;6.674;2023-04-01T03:51:47;96577.22;;;8.64;71.50
71917;BME280;59793;46.506;6.674;2023-04-01T03:54:12;96567.31;;;8.57;72.54
71917;BME280;59793;46.506;6.674;2023-04-01T03:56:38;96595.44;;;8.56;73.11
71917;BME280;59793;46.506;6.674;2023-04-01T03:59:05;96606.44;;;8.62;73.95
71917;BME280;59793;46.506;6.674;2023-04-01T04:01:31;96573.66;;;8.40;74.29
71917;BME280;59793;46.506;6.674;2023-04-01T04:03:57;96561.00;;;8.30;73.86
71917;BME280;59793;46.506;6.674;2023-04-01T04:06:23;96576.44;;;8.47;74.76
71917;BME280;59793;46.506;6.674;2023-04-01T04:08:49;96536.00;;;8.04;73.85
71917;BME280;59793;46.506;6.674;2023-04-01T04:11:16;96538.75;;;8.24;75.20
71917;BME280;59793;46.506;6.674;2023-04-01T04:13:42;96562.91;;;8.45;74.39
71917;BME280;59793;46.506;6.674;2023-04-01T04:16:08;96567.16;;;8.50;74.52
71917;BME280;59793;46.506;6.674;2023-04-01T04:18:34;96557.41;;;8.50;74.30
71917;BME280;59793;46.506;6.674;2023-04-01T04:21:00;96573.50;;;8.49;75.29
71917;BME280;59793;46.506;6.674;2023-04-01T04:23:25;96569.41;;;8.51;75.13
71917;BME280;59793;46.506;6.674;2023-04-01T04:28:20;96538.69;;;8.52;75.29
71917;BME280;59793;46.506;6.674;2023-04-01T04:30:45;96549.28;;;8.55;75.17
71917;BME280;59793;46.506;6.674;2023-04-01T04:33:11;96516.88;;;8.20;75.09
71917;BME280;59793;46.506;6.674;2023-04-01T04:35:36;96569.59;;;8.58;76.04
71917;BME280;59793;46.506;6.674;2023-04-01T04:38:02;96572.47;;;8.53;76.78
71917;BME280;59793;46.506;6.674;2023-04-01T04:40:27;96560.63;;;8.59;75.24
71917;BME280;59793;46.506;6.674;2023-04-01T04:42:52;96572.47;;;8.53;75.81
71917;BME280;59793;46.506;6.674;2023-04-01T04:45:18;96572.56;;;8.41;72.17
71917;BME280;59793;46.506;6.674;2023-04-01T04:47:43;96591.22;;;8.52;74.69
71917;BME280;59793;46.506;6.674;2023-04-01T04:50:09;96589.00;;;8.38;76.75
71917;BME280;59793;46.506;6.674;2023-04-01T04:52:34;96585.41;;;8.30;78.20
71917;BME280;59793;46.506;6.674;2023-04-01T04:55:00;96566.91;;;8.11;78.47
71917;BME280;59793;46.506;6.674;2023-04-01T04:57:25;96556.50;;;8.14;78.00
71917;BME280;59793;46.506;6.674;2023-04-01T04:59:51;96582.66;;;8.27;78.43
71917;BME280;59793;46.506;6.674;2023-04-01T05:02:16;96592.13;;;8.15;78.93
71917;BME280;59793;46.506;6.674;2023-04-01T05:04:42;96556.97;;;7.88;79.57
71917;BME280;59793;46.506;6.674;2023-04-01T05:07:07;96566.53;;;7.97;79.86
71917;BME280;59793;46.506;6.674;2023-04-01T05:09:32;96604.00;;;8.25;77.40
71917;BME280;59793;46.506;6.674;2023-04-01T05:11:58;96602.75;;;8.35;74.41
71917;BME280;59793;46.506;6.674;2023-04-01T05:14:24;96580.25;;;8.34;73.12
71917;BME280;59793;46.506;6.674;2023-04-01T05:16:50;96602.28;;;8.45;72.63
71917;BME280;59793;46.506;6.674;2023-04-01T05:19:15;96603.06;;;8.46;73.50
71917;BME280;59793;46.506;6.674;2023-04-01T05:21:41;96603.81;;;8.46;73.62
71917;BME280;59793;46.506;6.674;2023-04-01T05:24:09;96580.72;;;8.24;73.42
71917;BME280;59793;46.506;6.674;2023-04-01T05:26:35;96556.88;;;8.01;74.36
71917;BME280;59793;46.506;6.674;2023-04-01T05:29:02;96602.88;;;8.26;74.87
71917;BME280;59793;46.506;6.674;2023-04-01T05:31:28;96578.78;;;8.21;74.47
71917;BME280;59793;46.506;6.674;2023-04-01T05:33:54;96583.16;;;8.17;75.12
71917;BME280;59793;46.506;6.674;2023-04-01T05:36:20;96600.19;;;8.23;75.77
71917;BME280;59793;46.506;6.674;2023-04-01T05:38:45;96584.50;;;8.10;76.11
71917;BME280;59793;46.506;6.674;2023-04-01T05:41:12;96569.50;;;7.95;76.37
71917;BME280;59793;46.506;6.674;2023-04-01T05:43:39;96582.09;;;8.05;75.82
71917;BME280;59793;46.506;6.674;2023-04-01T05:46:05;96600.53;;;8.21;75.88
71917;BME280;59793;46.506;6.674;2023-04-01T05:48:33;96581.44;;;8.08;76.20
71917;BME280;59793;46.506;6.674;2023-04-01T05:51:00;96572.22;;;7.99;75.68
71917;BME280;59793;46.506;6.674;2023-04-01T05:53:25;96560.06;;;7.78;75.82
71917;BME280;59793;46.506;6.674;2023-04-01T05:55:51;96554.81;;;7.78;76.43
71917;BME280;59793;46.506;6.674;2023-04-01T05:58:16;96560.72;;;8.03;76.46
71917;BME280;59793;46.506;6.674;2023-04-01T06:00:41;96560.53;;;7.96;76.08
71917;BME280;59793;46.506;6.674;2023-04-01T06:03:07;96543.56;;;7.78;76.98
71917;BME280;59793;46.506;6.674;2023-04-01T06:05:40;96587.13;;;8.10;76.50
71917;BME280;59793;46.506;6.674;2023-04-01T06:08:17;96571.19;;;8.03;75.69
71917;BME280;59793;46.506;6.674;2023-04-01T06:13:55;96596.88;;;8.26;75.66
71917;BME280;59793;46.506;6.674;2023-04-01T06:16:52;96609.16;;;8.22;75.97
71917;BME280;59793;46.506;6.674;2023-04-01T06:19:44;96579.81;;;8.32;75.29
71917;BME280;59793;46.506;6.674;2023-04-01T06:24:47;96585.97;;;8.52;75.55
71917;BME280;59793;46.506;6.674;2023-04-01T06:27:29;96589.75;;;8.54;73.89
71917;BME280;59793;46.506;6.674;2023-04-01T06:30:38;96590.09;;;8.69;72.81
71917;BME280;59793;46.506;6.674;2023-04-01T06:40:43;96608.81;;;8.99;71.39
71917;BME280;59793;46.506;6.674;2023-04-01T06:43:31;96581.13;;;8.70;71.98
71917;BME280;59793;46.506;6.674;2023-04-01T06:48:38;96612.22;;;8.83;71.21
71917;BME280;59793;46.506;6.674;2023-04-01T06:51:37;96605.41;;;8.51;71.80
71917;BME280;59793;46.506;6.674;2023-04-01T06:54:21;96637.09;;;8.58;74.54
71917;BME280;59793;46.506;6.674;2023-04-01T06:56:56;96655.38;;;8.54;74.69
71917;BME280;59793;46.506;6.674;2023-04-01T06:59:27;96631.94;;;8.46;75.42
71917;BME280;59793;46.506;6.674;2023-04-01T07:02:05;96617.88;;;8.38;76.62
71917;BME280;59793;46.506;6.674;2023-04-01T07:04:44;96633.63;;;8.38;75.82
71917;BME280;59793;46.506;6.674;2023-04-01T07:10:16;96631.56;;;8.47;74.87
71917;BME280;59793;46.506;6.674;2023-04-01T07:12:54;96614.56;;;8.41;74.00
71917;BME280;59793;46.506;6.674;2023-04-01T07:15:27;96644.47;;;8.52;75.97
71917;BME280;59793;46.506;6.674;2023-04-01T07:17:58;96647.94;;;8.56;76.45
71917;BME280;59793;46.506;6.674;2023-04-01T07:20:29;96647.50;;;8.54;77.20
71917;BME280;59793;46.506;6.674;2023-04-01T07:23:02;96637.19;;;8.46;75.33
71917;BME280;59793;46.506;6.674;2023-04-01T07:25:37;96652.84;;;8.58;75.80
71917;BME280;59793;46.506;6.674;2023-04-01T07:28:05;96653.59;;;8.58;72.52
71917;BME280;59793;46.506;6.674;2023-04-01T07:33:21;96625.56;;;8.47;74.31
71917;BME280;59793;46.506;6.674;2023-04-01T07:36:03;96676.34;;;8.67;73.79
71917;BME280;59793;46.506;6.674;2023-04-01T07:41:50;96672.78;;;8.75;75.48
71917;BME280;59793;46.506;6.674;2023-04-01T07:49:34;96664.75;;;8.83;70.53
71917;BME280;59793;46.506;6.674;2023-04-01T07:52:06;96683.47;;;9.14;70.05
71917;BME280;59793;46.506;6.674;2023-04-01T07:55:04;96674.34;;;9.23;69.18
71917;BME280;59793;46.506;6.674;2023-04-01T07:57:35;96686.88;;;9.30;69.83
71917;BME280;59793;46.506;6.674;2023-04-01T08:03:04;96673.31;;;9.44;66.03
71917;BME280;59793;46.506;6.674;2023-04-01T08:05:45;96678.09;;;9.57;66.70
71917;BME280;59793;46.506;6.674;2023-04-01T08:21:41;96643.50;;;9.75;67.03
71917;BME280;59793;46.506;6.674;2023-04-01T08:24:40;96661.81;;;9.87;65.75
71917;BME280;59793;46.506;6.674;2023-04-01T08:27:13;96682.44;;;9.85;66.01
71917;BME280;59793;46.506;6.674;2023-04-01T08:30:03;96674.53;;;9.85;67.23
71917;BME280;59793;46.506;6.674;2023-04-01T08:32:39;96680.78;;;9.77;67.22
71917;BME280;59793;46.506;6.674;2023-04-01T08:35:24;96657.31;;;9.68;67.47
71917;BME280;59793;46.506;6.674;2023-04-01T08:37:53;96670.53;;;9.72;67.41
71917;BME280;59793;46.506;6.674;2023-04-01T08:40:51;96687.50;;;9.94;67.50
71917;BME280;59793;46.506;6.674;2023-04-01T08:46:26;96691.66;;;9.75;66.83
71917;BME280;59793;46.506;6.674;2023-04-01T08:57:12;96677.69;;;9.91;66.63
71917;BME280;59793;46.506;6.674;2023-04-01T08:59:57;96676.91;;;10.10;65.94
71917;BME280;59793;46.506;6.674;2023-04-01T09:05:35;96669.78;;;10.10;65.00
71917;BME280;59793;46.506;6.674;2023-04-01T09:27:26;96670.66;;;10.76;65.27
71917;BME280;59793;46.506;6.674;2023-04-01T09:33:04;96670.56;;;10.49;64.35
71917;BME280;59793;46.506;6.674;2023-04-01T09:35:47;96643.53;;;10.14;64.50
71917;BME280;59793;46.506;6.674;2023-04-01T09:40:58;96669.88;;;10.33;65.89
71917;BME280;59793;46.506;6.674;2023-04-01T09:46:26;96686.28;;;10.07;67.46
71917;BME280;59793;46.506;6.674;2023-04-01T09:49:13;96699.19;;;9.77;68.59
71917;BME280;59793;46.506;6.674;2023-04-01T09:52:10;96681.19;;;9.79;70.37
71917;BME280;59793;46.506;6.674;2023-04-01T10:11:15;96672.00;;;9.53;72.94
71917;BME280;59793;46.506;6.674;2023-04-01T10:39:02;96623.91;;;11.45;61.64
71917;BME280;59793;46.506;6.674;2023-04-01T10:50:04;96614.16;;;11.49;64.17
71917;BME280;59793;46.506;6.674;2023-04-01T11:01:22;96599.66;;;11.10;63.55
71917;BME280;59793;46.506;6.674;2023-04-01T11:16:01;96594.72;;;10.59;67.83
71917;BME280;59793;46.506;6.674;2023-04-01T11:21:26;96655.78;;;9.16;76.46
71917;BME280;59793;46.506;6.674;2023-04-01T11:40:47;96613.63;;;10.22;77.08
71917;BME280;59793;46.506;6.674;2023-04-01T11:46:11;96615.97;;;11.76;68.96
71917;BME280;59793;46.506;6.674;2023-04-01T12:08:36;96580.97;;;12.09;64.11
71917;BME280;59793;46.506;6.674;2023-04-01T12:37:28;96546.25;;;13.06;51.81
71917;BME280;59793;46.506;6.674;2023-04-01T12:45:32;96538.31;;;13.79;47.73
71917;BME280;59793;46.506;6.674;2023-04-01T12:48:27;96536.53;;;13.21;49.53
71917;BME280;59793;46.506;6.674;2023-04-01T12:54:02;96523.09;;;12.85;53.05
71917;BME280;59793;46.506;6.674;2023-04-01T13:10:15;96501.25;;;12.96;52.81
71917;BME280;59793;46.506;6.674;2023-04-01T13:18:39;96501.91;;;13.48;52.75
71917;BME280;59793;46.506;6.674;2023-04-01T13:21:28;96495.56;;;13.70;53.53
71917;BME280;59793;46.506;6.674;2023-04-01T13:24:24;96501.69;;;14.03;55.71
71917;BME280;59793;46.506;6.674;2023-04-01T13:29:32;96486.59;;;13.09;57.78
71917;BME280;59793;46.506;6.674;2023-04-01T13:34:52;96456.06;;;12.56;55.95
71917;BME280;59793;46.506;6.674;2023-04-01T13:40:14;96451.34;;;12.28;57.39
71917;BME280;59793;46.506;6.674;2023-04-01T13:48:28;96463.41;;;13.61;57.01
71917;BME280;59793;46.506;6.674;2023-04-01T14:12:50;96433.56;;;12.80;55.51
71917;BME280;59793;46.506;6.674;2023-04-01T14:15:46;96444.16;;;12.80;55.15
71917;BME280;59793;46.506;6.674;2023-04-01T14:39:47;96439.97;;;12.20;59.52
71917;BME280;59793;46.506;6.674;2023-04-01T14:45:31;96421.81;;;12.15;60.10
71917;BME280;59793;46.506;6.674;2023-04-01T14:48:17;96409.94;;;11.91;59.29
71917;BME280;59793;46.506;6.674;2023-04-01T14:50:49;96422.16;;;11.73;60.38
71917;BME280;59793;46.506;6.674;2023-04-01T14:53:29;96412.50;;;11.10;63.77
71917;BME280;59793;46.506;6.674;2023-04-01T14:55:58;96443.47;;;11.20;65.52
71917;BME280;59793;46.506;6.674;2023-04-01T14:58:42;96451.53;;;11.00;66.65
71917;BME280;59793;46.506;6.674;2023-04-01T15:03:46;96466.88;;;10.42;71.34
71917;BME280;59793;46.506;6.674;2023-04-01T15:26:11;96463.31;;;10.80;70.91
71917;BME280;59793;46.506;6.674;2023-04-01T15:29:04;96438.22;;;10.90;70.47
71917;BME280;59793;46.506;6.674;2023-04-01T15:31:50;96440.53;;;11.25;69.65
71917;BME280;59793;46.506;6.674;2023-04-01T15:37:54;96429.31;;;11.32;68.58
71917;BME280;59793;46.506;6.674;2023-04-01T15:43:03;96446.06;;;11.50;68.82
71917;BME280;59793;46.506;6.674;2023-04-01T15:59:14;96430.38;;;11.27;68.65
71917;BME280;59793;46.506;6.674;2023-04-01T16:02:52;96419.50;;;10.98;69.45
71917;BME280;59793;46.506;6.674;2023-04-01T16:08:37;96432.44;;;10.81;70.24
71917;BME280;59793;46.506;6.674;2023-04-01T16:11:19;96433.00;;;10.67;70.35
71917;BME280;59793;46.506;6.674;2023-04-01T16:17:12;96427.69;;;10.90;68.69
71917;BME280;59793;46.506;6.674;2023-04-01T16:22:19;96434.75;;;10.82;68.18
71917;BME280;59793;46.506;6.674;2023-04-01T16:27:46;96412.81;;;10.74;65.97
71917;BME280;59793;46.506;6.674;2023-04-01T16:33:28;96439.59;;;10.80;65.82
71917;BME280;59793;46.506;6.674;2023-04-01T16:47:38;96438.19;;;10.60;65.91
71917;BME280;59793;46.506;6.674;2023-04-01T16:50:28;96427.97;;;10.55;65.35
71917;BME280;59793;46.506;6.674;2023-04-01T16:53:01;96445.00;;;10.61;65.38
71917;BME280;59793;46.506;6.674;2023-04-01T16:55:54;96449.97;;;10.69;65.99
71917;BME280;59793;46.506;6.674;2023-04-01T16:58:24;96452.09;;;10.57;66.64
71917;BME280;59793;46.506;6.674;2023-04-01T17:01:02;96436.47;;;10.44;66.88
71917;BME280;59793;46.506;6.674;2023-04-01T17:03:33;96442.41;;;10.64;67.58
71917;BME280;59793;46.506;6.674;2023-04-01T17:14:32;96462.56;;;10.53;69.63
71917;BME280;59793;46.506;6.674;2023-04-01T17:22:24;96468.97;;;10.29;70.27
71917;BME280;59793;46.506;6.674;2023-04-01T17:27:40;96473.69;;;9.97;72.36
71917;BME280;59793;46.506;6.674;2023-04-01T17:44:30;96494.50;;;9.63;73.73
71917;BME280;59793;46.506;6.674;2023-04-01T17:50:24;96497.06;;;9.40;74.19
71917;BME280;59793;46.506;6.674;2023-04-01T18:19:48;96547.50;;;9.10;73.54
71917;BME280;59793;46.506;6.674;2023-04-01T18:22:21;96517.75;;;8.87;73.88
71917;BME280;59793;46.506;6.674;2023-04-01T18:30:50;96526.03;;;8.89;73.26
71917;BME280;59793;46.506;6.674;2023-04-01T18:33:21;96535.69;;;8.85;73.88
71917;BME280;59793;46.506;6.674;2023-04-01T18:38:49;96560.63;;;8.91;73.08
71917;BME280;59793;46.506;6.674;2023-04-01T18:41:35;96588.28;;;9.04;71.28
71917;BME280;59793;46.506;6.674;2023-04-01T18:44:27;96581.06;;;9.17;70.14
71917;BME280;59793;46.506;6.674;2023-04-01T18:49:55;96584.09;;;9.35;72.46
71917;BME280;59793;46.506;6.674;2023-04-01T18:52:36;96584.09;;;9.35;73.10
71917;BME280;59793;46.506;6.674;2023-04-01T19:00:47;96585.88;;;9.31;73.17
71917;BME280;59793;46.506;6.674;2023-04-01T19:06:41;96582.81;;;8.78;74.39
71917;BME280;59793;46.506;6.674;2023-04-01T19:09:19;96614.31;;;9.09;74.30
71917;BME280;59793;46.506;6.674;2023-04-01T19:23:00;96599.91;;;8.72;73.91
71917;BME280;59793;46.506;6.674;2023-04-01T19:25:38;96628.56;;;8.93;73.42
71917;BME280;59793;46.506;6.674;2023-04-01T19:28:22;96635.78;;;8.96;72.96
71917;BME280;59793;46.506;6.674;2023-04-01T19:33:49;96639.94;;;8.81;72.77
71917;BME280;59793;46.506;6.674;2023-04-01T19:39:06;96636.69;;;8.72;72.79
71917;BME280;59793;46.506;6.674;2023-04-01T19:45:03;96649.41;;;8.70;72.78
71917;BME280;59793;46.506;6.674;2023-04-01T19:50:23;96656.00;;;8.64;72.10
71917;BME280;59793;46.506;6.674;2023-04-01T19:52:54;96627.97;;;8.24;73.23
71917;BME280;59793;46.506;6.674;2023-04-01T20:00:44;96609.25;;;7.97;74.50
71917;BME280;59793;46.506;6.674;2023-04-01T20:03:30;96649.38;;;8.26;75.01
71917;BME280;59793;46.506;6.674;2023-04-01T20:12:38;96658.34;;;8.25;74.93
71917;BME280;59793;46.506;6.674;2023-04-01T20:15:23;96643.31;;;8.09;74.89
71917;BME280;59793;46.506;6.674;2023-04-01T20:17:53;96642.69;;;8.00;75.75
71917;BME280;59793;46.506;6.674;2023-04-01T20:20:24;96664.25;;;8.22;75.33
71917;BME280;59793;46.506;6.674;2023-04-01T20:25:42;96671.88;;;8.27;74.45
71917;BME280;59793;46.506;6.674;2023-04-01T20:28:32;96664.88;;;8.03;74.88
71917;BME280;59793;46.506;6.674;2023-04-01T20:34:02;96680.72;;;8.06;75.40
71917;BME280;59793;46.506;6.674;2023-04-01T20:36:36;96686.63;;;8.03;75.63
71917;BME280;59793;46.506;6.674;2023-04-01T20:41:54;96691.41;;;8.13;75.36
71917;BME280;59793;46.506;6.674;2023-04-01T20:47:16;96685.06;;;8.14;75.23
71917;BME280;59793;46.506;6.674;2023-04-01T20:52:49;96668.72;;;7.93;76.26
71917;BME280;59793;46.506;6.674;2023-04-01T20:58:54;96652.03;;;7.73;76.40
71917;BME280;59793;46.506;6.674;2023-04-01T21:12:28;96678.91;;;7.70;77.09
71917;BME280;59793;46.506;6.674;2023-04-01T21:15:19;96680.56;;;7.75;77.27
71917;BME280;59793;46.506;6.674;2023-04-01T21:18:04;96691.38;;;7.73;77.50
71917;BME280;59793;46.506;6.674;2023-04-01T21:20:48;96697.16;;;7.79;77.24
71917;BME280;59793;46.506;6.674;2023-04-01T21:26:40;96705.09;;;7.95;76.59
71917;BME280;59793;46.506;6.674;2023-04-01T21:28:55;96705.53;;;7.97;75.73
71917;BME280;59793;46.506;6.674;2023-04-01T21:34:31;96702.81;;;7.93;74.77
71917;BME280;59793;46.506;6.674;2023-04-01T22:07:46;96701.38;;;8.36;71.99
71917;BME280;59793;46.506;6.674;2023-04-01T22:10:34;96707.28;;;8.45;71.68
71917;BME280;59793;46.506;6.674;2023-04-01T22:13:15;96668.31;;;8.19;71.96
71917;BME280;59793;46.506;6.674;2023-04-01T22:15:58;96714.97;;;8.26;72.73
71917;BME280;59793;46.506;6.674;2023-04-01T22:18:34;96718.06;;;8.15;73.58
71917;BME280;59793;46.506;6.674;2023-04-01T22:21:12;96707.63;;;8.03;74.68
71917;BME280;59793;46.506;6.674;2023-04-01T22:26:27;96716.88;;;8.13;74.72
71917;BME280;59793;46.506;6.674;2023-04-01T22:29:17;96715.44;;;8.15;74.46
71917;BME280;59793;46.506;6.674;2023-04-01T22:37:18;96703.47;;;8.02;75.60
71917;BME280;59793;46.506;6.674;2023-04-01T22:47:57;96705.31;;;8.02;75.32
71917;BME280;59793;46.506;6.674;2023-04-01T22:50:33;96707.16;;;8.01;75.27
71917;BME280;59793;46.506;6.674;2023-04-01T22:55:51;96672.00;;;7.90;74.83
71917;BME280;59793;46.506;6.674;2023-04-01T22:58:30;96677.91;;;7.87;75.49
71917;BME280;59793;46.506;6.674;2023-04-01T23:01:16;96688.59;;;7.94;75.70
71917;BME280;59793;46.506;6.674;2023-04-01T23:03:46;96713.56;;;7.88;75.94
71917;BME280;59793;46.506;6.674;2023-04-01T23:06:19;96704.34;;;7.94;76.23
71917;BME280;59793;46.506;6.674;2023-04-01T23:12:20;96705.25;;;7.86;76.67
71917;BME280;59793;46.506;6.674;2023-04-01T23:17:19;96715.75;;;7.74;76.39
71917;BME280;59793;46.506;6.674;2023-04-01T23:20:12;96721.88;;;7.78;76.59
71917;BME280;59793;46.506;6.674;2023-04-01T23:23:00;96723.81;;;7.81;76.36
71917;BME280;59793;46.506;6.674;2023-04-01T23:35:51;96709.84;;;7.77;75.88
71917;BME280;59793;46.506;6.674;2023-04-01T23:38:20;96730.72;;;7.85;75.72
71917;BME280;59793;46.506;6.674;2023-04-01T23:40:49;96700.69;;;7.58;75.51
71917;BME280;59793;46.506;6.674;2023-04-01T23:43:24;96707.44;;;7.72;75.42
71917;BME280;59793;46.506;6.674;2023-04-01T23:45:52;96715.31;;;7.72;75.15
71917;BME280;59793;46.506;6.674;2023-04-01T23:48:28;96720.97;;;7.74;75.07
71917;BME280;59793;46.506;6.674;2023-04-01T23:50:56;96699.03;;;7.66;75.21
71917;BME280;59793;46.506;6.674;2023-04-01T23:53:26;96737.38;;;7.95;74.82
71917;BME280;59793;46.506;6.674;2023-04-01T23:55:54;96737.38;;;7.83;74.86
71917;BME280;59793;46.506;6.674;2023-04-01T23:58:26;96730.50;;;7.66;75.37
